Time;durP1;ratioP1;P1;durP2;ratioP2;P2;SDS_P1;SDS_P2;PMS_P1;PMS_P2;Temp;Humidity;BMP_temperature;BMP_pressure;BME280_temperature;BME280_humidity;BME280_pressure;Samples;Min_cycle;Max_cycle;Signal;HPM_P1;HPM_P2
2020/12/13 00:01:16;;;;;;;25.67;15.30;;;;;;;;;;5070176;28;20216;-51
2020/12/13 00:03:52;;;;;;;19.80;14.13;;;;;;;;;;5075799;28;20208;-56
2020/12/13 00:06:27;;;;;;;25.38;15.90;;;;;;;;;;5075329;28;20193;-48
2020/12/13 00:08:54;;;;;;;25.25;18.45;;;;;;;;;;5073985;28;20214;-57
2020/12/13 00:11:21;;;;;;;38.20;28.67;;;;;;;;;;5074608;28;20216;-48
2020/12/13 00:14:03;;;;;;;36.65;21.92;;;;;;;;;;5074867;28;20214;-53
2020/12/13 00:16:35;;;;;;;43.85;32.28;;;;;;;;;;5074530;28;20280;-53
2020/12/13 00:19:02;;;;;;;28.38;19.75;;;;;;;;;;5074654;28;20182;-51
2020/12/13 00:21:29;;;;;;;27.17;18.90;;;;;;;;;;5074919;28;20212;-50
2020/12/13 00:23:56;;;;;;;32.67;22.27;;;;;;;;;;5074031;28;20207;-56
2020/12/13 00:29:18;;;;;;;65.07;45.75;;;;;;;;;;5073365;28;20212;-58
2020/12/13 00:31:58;;;;;;;54.25;36.38;;;;;;;;;;5073311;28;20212;-58
2020/12/13 00:34:33;;;;;;;37.30;26.13;;;;;;;;;;5073267;28;20227;-58
2020/12/13 00:39:47;;;;;;;53.85;36.35;;;;;;;;;;5053703;28;20188;-58
2020/12/13 00:42:17;;;;;;;72.57;50.75;;;;;;;;;;5054000;28;20244;-61
2020/12/13 00:44:46;;;;;;;54.93;38.47;;;;;;;;;;5053076;28;20212;-57
2020/12/13 00:47:13;;;;;;;42.42;27.55;;;;;;;;;;5054389;28;20453;-57
2020/12/13 00:49:40;;;;;;;67.80;46.25;;;;;;;;;;5073601;28;20268;-53
2020/12/13 00:52:07;;;;;;;66.15;45.30;;;;;;;;;;5074469;28;20247;-57
2020/12/13 00:54:45;;;;;;;160.38;110.78;;;;;;;;;;5074186;28;20196;-57
2020/12/13 00:57:14;;;;;;;414.15;274.42;;;;;;;;;;5072162;28;20325;-50
2020/12/13 00:59:41;;;;;;;88.50;54.22;;;;;;;;;;5072747;28;20220;-54
2020/12/13 01:02:08;;;;;;;77.35;48.13;;;;;;;;;;5073912;28;20227;-55
2020/12/13 01:04:41;;;;;;;228.18;148.23;;;;;;;;;;5074278;28;20201;-54
2020/12/13 01:07:08;;;;;;;33.55;21.45;;;;;;;;;;5073480;28;20286;-58
2020/12/13 01:09:35;;;;;;;24.45;16.98;;;;;;;;;;5073594;28;20204;-53
2020/12/13 01:12:06;;;;;;;38.95;28.88;;;;;;;;;;5073749;28;20232;-49
2020/12/13 01:14:33;;;;;;;46.00;29.73;;;;;;;;;;5071953;28;20208;-46
2020/12/13 01:17:15;;;;;;;51.33;34.65;;;;;;;;;;5070337;28;20231;-60
2020/12/13 01:19:55;;;;;;;54.28;37.10;;;;;;;;;;5073008;28;20213;-59
2020/12/13 01:22:23;;;;;;;45.15;30.50;;;;;;;;;;5073781;28;20216;-52
2020/12/13 01:24:51;;;;;;;73.13;50.47;;;;;;;;;;5073559;28;20257;-51
2020/12/13 01:27:27;;;;;;;32.28;24.02;;;;;;;;;;5073750;28;20228;-56
2020/12/13 01:29:59;;;;;;;35.78;24.02;;;;;;;;;;5074203;28;20216;-55
2020/12/13 01:32:44;;;;;;;32.15;21.42;;;;;;;;;;5074445;28;20232;-55
2020/12/13 01:35:13;;;;;;;26.33;18.75;;;;;;;;;;5072730;28;20219;-46
2020/12/13 01:37:47;;;;;;;35.92;28.00;;;;;;;;;;5070850;28;20243;-50
2020/12/13 01:40:14;;;;;;;94.60;63.20;;;;;;;;;;5070867;28;20262;-57
2020/12/13 01:42:57;;;;;;;44.10;25.33;;;;;;;;;;5072134;28;20208;-60
2020/12/13 01:45:25;;;;;;;78.90;53.53;;;;;;;;;;5070660;28;20344;-56
2020/12/13 01:48:05;;;;;;;90.40;60.75;;;;;;;;;;5071368;28;20214;-49
2020/12/13 01:50:44;;;;;;;36.10;25.13;;;;;;;;;;5070539;28;20200;-56
2020/12/13 01:53:15;;;;;;;42.33;28.05;;;;;;;;;;5071047;28;20203;-54
2020/12/13 01:55:52;;;;;;;78.32;49.53;;;;;;;;;;5069858;28;20208;-58
2020/12/13 01:58:22;;;;;;;32.85;22.10;;;;;;;;;;5050124;28;20216;-57
2020/12/13 02:00:54;;;;;;;29.75;19.27;;;;;;;;;;5051848;28;20273;-58
2020/12/13 02:03:23;;;;;;;31.73;20.60;;;;;;;;;;5061941;28;20239;-57
2020/12/13 02:05:55;;;;;;;24.55;16.92;;;;;;;;;;5071411;28;20420;-56
2020/12/13 02:08:23;;;;;;;23.05;14.20;;;;;;;;;;5071630;28;20217;-60
2020/12/13 02:10:53;;;;;;;64.68;44.33;;;;;;;;;;5072794;28;20272;-61
2020/12/13 02:13:21;;;;;;;31.13;20.63;;;;;;;;;;5072763;28;20210;-59
2020/12/13 02:15:55;;;;;;;27.20;18.08;;;;;;;;;;5073003;28;20192;-54
2020/12/13 02:18:22;;;;;;;116.88;78.30;;;;;;;;;;5077840;28;20224;-51
2020/12/13 02:20:52;;;;;;;38.53;24.83;;;;;;;;;;5078974;28;20212;-58
2020/12/13 02:23:21;;;;;;;31.23;21.67;;;;;;;;;;5079498;28;20227;-53
2020/12/13 02:25:57;;;;;;;55.60;37.97;;;;;;;;;;5081083;28;20207;-54
2020/12/13 02:28:35;;;;;;;32.35;18.65;;;;;;;;;;5077931;28;20542;-57
2020/12/13 02:31:06;;;;;;;42.22;27.77;;;;;;;;;;5079737;28;20199;-53
2020/12/13 02:33:37;;;;;;;38.72;26.10;;;;;;;;;;5079069;28;20202;-56
2020/12/13 02:36:05;;;;;;;29.67;17.52;;;;;;;;;;5080088;28;20226;-53
2020/12/13 02:38:32;;;;;;;65.32;43.13;;;;;;;;;;5079547;28;20211;-57
2020/12/13 02:41:22;;;;;;;76.85;51.30;;;;;;;;;;5076417;28;20211;-52
2020/12/13 02:43:59;;;;;;;29.40;19.98;;;;;;;;;;5075612;28;20232;-49
2020/12/13 02:46:33;;;;;;;88.18;65.43;;;;;;;;;;5076715;28;20204;-57
2020/12/13 02:49:17;;;;;;;43.88;29.55;;;;;;;;;;5078766;28;20215;-56
2020/12/13 02:51:44;;;;;;;129.30;88.10;;;;;;;;;;5060703;28;20232;-54
2020/12/13 02:54:13;;;;;;;379.38;267.40;;;;;;;;;;5052808;28;20260;-53
2020/12/13 02:56:41;;;;;;;113.15;77.47;;;;;;;;;;5079406;28;20216;-58
2020/12/13 02:59:27;;;;;;;93.60;67.22;;;;;;;;;;5079334;28;20201;-55
2020/12/13 03:02:04;;;;;;;64.05;40.60;;;;;;;;;;5074565;28;20242;-56
2020/12/13 03:04:38;;;;;;;69.75;47.67;;;;;;;;;;5072957;28;20235;-56
2020/12/13 03:07:05;;;;;;;43.53;33.28;;;;;;;;;;5077360;28;20197;-56
2020/12/13 03:09:36;;;;;;;29.25;20.83;;;;;;;;;;5077730;28;20208;-56
2020/12/13 03:12:12;;;;;;;50.83;36.38;;;;;;;;;;5077743;28;20318;-53
2020/12/13 03:14:52;;;;;;;24.23;17.08;;;;;;;;;;5078082;28;20204;-51
2020/12/13 03:17:32;;;;;;;68.13;48.28;;;;;;;;;;5079506;28;20228;-56
2020/12/13 03:20:03;;;;;;;43.53;32.25;;;;;;;;;;5077396;28;20196;-58
2020/12/13 03:22:30;;;;;;;28.42;22.58;;;;;;;;;;5079398;28;20243;-53
2020/12/13 03:24:59;;;;;;;41.53;30.50;;;;;;;;;;5079267;28;20228;-50
2020/12/13 03:27:26;;;;;;;25.73;19.25;;;;;;;;;;5077558;28;20199;-48
2020/12/13 03:29:54;;;;;;;26.52;18.20;;;;;;;;;;5074465;28;20378;-55
2020/12/13 03:32:35;;;;;;;25.83;19.80;;;;;;;;;;5075104;28;20240;-50
2020/12/13 03:35:02;;;;;;;28.90;17.10;;;;;;;;;;5075491;28;20205;-53
2020/12/13 03:37:30;;;;;;;22.45;16.45;;;;;;;;;;5074396;28;20225;-56
2020/12/13 03:40:07;;;;;;;30.25;17.27;;;;;;;;;;5075491;28;20212;-56
2020/12/13 03:42:34;;;;;;;24.48;19.02;;;;;;;;;;5073364;28;20247;-56
2020/12/13 03:45:03;;;;;;;20.92;15.10;;;;;;;;;;5073562;28;20283;-57
2020/12/13 03:47:34;;;;;;;22.00;17.10;;;;;;;;;;5074524;28;20251;-58
2020/12/13 03:50:03;;;;;;;19.42;14.60;;;;;;;;;;5074998;28;20630;-59
2020/12/13 03:52:40;;;;;;;33.38;21.85;;;;;;;;;;5073229;28;20222;-59
2020/12/13 03:55:13;;;;;;;22.63;15.75;;;;;;;;;;5053353;28;20213;-59
2020/12/13 03:57:53;;;;;;;51.00;36.55;;;;;;;;;;5053277;28;20229;-56
2020/12/13 04:00:20;;;;;;;28.90;22.48;;;;;;;;;;5052893;28;20205;-57
2020/12/13 04:03:12;;;;;;;31.25;23.02;;;;;;;;;;5054324;28;20391;-58
2020/12/13 04:05:41;;;;;;;32.00;22.90;;;;;;;;;;5057219;28;20232;-59
2020/12/13 04:08:18;;;;;;;25.30;18.85;;;;;;;;;;5074080;28;20236;-53
2020/12/13 04:10:47;;;;;;;18.52;15.07;;;;;;;;;;5073261;28;20181;-51
2020/12/13 04:13:14;;;;;;;21.35;15.70;;;;;;;;;;5072938;28;20176;-53
2020/12/13 04:15:41;;;;;;;22.92;16.63;;;;;;;;;;5072529;28;20278;-52
2020/12/13 04:20:51;;;;;;;25.75;18.63;;;;;;;;;;5052493;28;20247;-58
2020/12/13 04:23:18;;;;;;;23.25;15.57;;;;;;;;;;5053324;28;20218;-58
2020/12/13 04:25:54;;;;;;;31.25;22.85;;;;;;;;;;5054284;28;20190;-57
2020/12/13 04:28:21;;;;;;;28.73;21.88;;;;;;;;;;5055084;28;20482;-58
2020/12/13 04:30:50;;;;;;;22.58;15.00;;;;;;;;;;5054866;28;20235;-58
2020/12/13 04:33:27;;;;;;;21.70;14.27;;;;;;;;;;5053272;28;20212;-52
2020/12/13 04:36:00;;;;;;;38.50;28.70;;;;;;;;;;5071830;28;20462;-59
2020/12/13 04:38:27;;;;;;;18.40;13.32;;;;;;;;;;5073187;28;20220;-51
2020/12/13 04:41:05;;;;;;;22.92;18.02;;;;;;;;;;5073988;28;20200;-57
2020/12/13 04:43:35;;;;;;;32.78;22.85;;;;;;;;;;5073400;28;20231;-56
2020/12/13 04:46:19;;;;;;;25.90;21.02;;;;;;;;;;5071556;28;20255;-51
2020/12/13 04:48:48;;;;;;;17.55;13.05;;;;;;;;;;5061388;28;20219;-59
2020/12/13 04:51:28;;;;;;;23.13;16.30;;;;;;;;;;5072254;28;20290;-55
2020/12/13 04:54:04;;;;;;;17.50;12.27;;;;;;;;;;5066746;28;20443;-54
2020/12/13 04:56:38;;;;;;;14.40;10.77;;;;;;;;;;5062466;28;20204;-58
2020/12/13 04:59:15;;;;;;;19.85;13.80;;;;;;;;;;5071927;28;20291;-55
2020/12/13 05:01:45;;;;;;;13.75;11.02;;;;;;;;;;5072309;28;20197;-50
2020/12/13 05:04:25;;;;;;;19.52;13.95;;;;;;;;;;5072575;28;20196;-54
2020/12/13 05:06:52;;;;;;;15.50;11.80;;;;;;;;;;5073974;28;20239;-49
2020/12/13 05:09:23;;;;;;;13.25;9.57;;;;;;;;;;5073103;28;20234;-56
2020/12/13 05:11:51;;;;;;;31.65;24.77;;;;;;;;;;5071125;28;20266;-49
2020/12/13 05:14:25;;;;;;;15.37;10.90;;;;;;;;;;5070825;28;20307;-56
2020/12/13 05:17:09;;;;;;;16.98;13.05;;;;;;;;;;5074027;28;20477;-57
2020/12/13 05:19:40;;;;;;;16.50;8.90;;;;;;;;;;5075044;28;20360;-54
2020/12/13 05:22:15;;;;;;;18.73;13.35;;;;;;;;;;5075030;28;20227;-56
2020/12/13 05:24:46;;;;;;;16.13;12.18;;;;;;;;;;5067691;28;20209;-56
2020/12/13 05:27:35;;;;;;;20.08;16.02;;;;;;;;;;5053427;28;20209;-50
2020/12/13 05:30:09;;;;;;;13.07;9.90;;;;;;;;;;5070951;28;20254;-58
2020/12/13 05:32:36;;;;;;;18.73;14.13;;;;;;;;;;5073009;28;20212;-56
2020/12/13 05:35:06;;;;;;;15.95;12.00;;;;;;;;;;5073341;28;20208;-55
2020/12/13 05:37:44;;;;;;;16.10;11.40;;;;;;;;;;5071565;28;20430;-56
2020/12/13 05:40:14;;;;;;;11.23;8.80;;;;;;;;;;5070349;28;20263;-52
2020/12/13 05:43:06;;;;;;;12.77;9.18;;;;;;;;;;5070512;28;20223;-57
2020/12/13 05:46:02;;;;;;;14.35;11.32;;;;;;;;;;5056012;28;20212;-53
2020/12/13 05:48:59;;;;;;;14.18;10.35;;;;;;;;;;5067027;28;20215;-53
2020/12/13 05:51:40;;;;;;;19.83;13.25;;;;;;;;;;5058762;28;20458;-57
2020/12/13 05:54:21;;;;;;;26.95;18.38;;;;;;;;;;5052611;28;20239;-57
2020/12/13 05:57:17;;;;;;;22.83;15.35;;;;;;;;;;5051399;28;20285;-52
2020/12/13 05:59:47;;;;;;;24.95;15.38;;;;;;;;;;5051977;28;20207;-54
2020/12/13 06:02:14;;;;;;;12.63;9.45;;;;;;;;;;5050672;28;20220;-50
2020/12/13 06:04:51;;;;;;;17.00;11.77;;;;;;;;;;5051893;28;20197;-54
2020/12/13 06:07:22;;;;;;;22.10;16.05;;;;;;;;;;5049549;28;20251;-51
2020/12/13 06:09:57;;;;;;;24.10;17.05;;;;;;;;;;5053147;28;20201;-50
2020/12/13 06:12:26;;;;;;;24.00;15.15;;;;;;;;;;5052756;28;20549;-52
2020/12/13 06:14:59;;;;;;;12.75;9.43;;;;;;;;;;5052079;28;20255;-47
2020/12/13 06:17:26;;;;;;;17.23;12.55;;;;;;;;;;5050681;28;20297;-54
2020/12/13 06:19:57;;;;;;;23.40;16.40;;;;;;;;;;5050712;28;20215;-55
2020/12/13 06:22:26;;;;;;;12.50;10.25;;;;;;;;;;5031670;28;20214;-50
2020/12/13 06:27:39;;;;;;;13.75;10.05;;;;;;;;;;5030630;28;20353;-55
2020/12/13 06:30:13;;;;;;;14.43;11.77;;;;;;;;;;5031689;28;20404;-52
2020/12/13 06:32:52;;;;;;;20.25;12.85;;;;;;;;;;5030908;28;20196;-52
2020/12/13 06:35:25;;;;;;;38.72;25.85;;;;;;;;;;5032743;28;20326;-52
2020/12/13 06:38:02;;;;;;;17.00;13.98;;;;;;;;;;5032014;28;20372;-51
2020/12/13 06:40:31;;;;;;;12.57;11.27;;;;;;;;;;5030413;28;20242;-52
2020/12/13 06:42:58;;;;;;;23.42;17.40;;;;;;;;;;5049592;28;20224;-53
2020/12/13 06:45:45;;;;;;;13.98;10.30;;;;;;;;;;5049922;28;20220;-47
2020/12/13 06:48:35;;;;;;;13.45;10.52;;;;;;;;;;5049539;28;20216;-54
2020/12/13 06:51:02;;;;;;;17.88;13.13;;;;;;;;;;5051382;28;20221;-56
2020/12/13 06:53:46;;;;;;;20.80;12.45;;;;;;;;;;5052699;28;20223;-51
2020/12/13 06:56:15;;;;;;;34.17;22.40;;;;;;;;;;5051340;28;20217;-58
2020/12/13 06:58:43;;;;;;;20.92;10.68;;;;;;;;;;5051429;28;20276;-53
2020/12/13 07:01:22;;;;;;;19.77;13.57;;;;;;;;;;5052102;28;20240;-50
2020/12/13 07:03:56;;;;;;;12.68;10.00;;;;;;;;;;5052828;28;20215;-49
2020/12/13 07:06:55;;;;;;;11.85;8.60;;;;;;;;;;5055075;28;20261;-58
2020/12/13 07:09:23;;;;;;;12.98;9.65;;;;;;;;;;5001607;28;20229;-55
2020/12/13 07:11:51;;;;;;;21.00;13.20;;;;;;;;;;5032763;28;20397;-54
2020/12/13 07:14:29;;;;;;;16.80;10.18;;;;;;;;;;5057475;28;20224;-52
2020/12/13 07:17:02;;;;;;;21.58;11.27;;;;;;;;;;5074803;28;20292;-56
2020/12/13 07:19:31;;;;;;;25.50;15.43;;;;;;;;;;5073077;28;20386;-51
2020/12/13 07:22:09;;;;;;;21.98;14.13;;;;;;;;;;5073389;28;20195;-56
2020/12/13 07:27:24;;;;;;;20.25;14.10;;;;;;;;;;5071029;28;20203;-56
2020/12/13 07:29:53;;;;;;;21.95;11.20;;;;;;;;;;5068620;28;20225;-59
2020/12/13 07:32:20;;;;;;;17.98;13.25;;;;;;;;;;5073120;28;20211;-57
2020/12/13 07:34:50;;;;;;;18.10;12.15;;;;;;;;;;5073237;28;20208;-52
2020/12/13 07:37:18;;;;;;;28.05;17.48;;;;;;;;;;5073040;28;20204;-58
2020/12/13 07:39:46;;;;;;;23.90;14.18;;;;;;;;;;5073653;28;20212;-56
2020/12/13 07:42:14;;;;;;;22.25;15.80;;;;;;;;;;5073061;28;20231;-53
2020/12/13 07:44:52;;;;;;;24.02;17.02;;;;;;;;;;5066778;28;20233;-56
2020/12/13 07:47:21;;;;;;;21.40;14.85;;;;;;;;;;5073900;28;20183;-55
2020/12/13 07:49:53;;;;;;;16.55;11.80;;;;;;;;;;5073633;28;20210;-58
2020/12/13 07:52:27;;;;;;;29.92;17.23;;;;;;;;;;5073016;28;20207;-51
2020/12/13 07:55:08;;;;;;;23.67;13.18;;;;;;;;;;5073674;28;20207;-54
2020/12/13 07:57:39;;;;;;;23.98;12.10;;;;;;;;;;5073451;28;20229;-51
2020/12/13 08:00:07;;;;;;;18.27;11.95;;;;;;;;;;5072965;28;20215;-49
2020/12/13 08:02:34;;;;;;;19.42;16.35;;;;;;;;;;5072844;28;20435;-53
2020/12/13 08:05:02;;;;;;;20.90;15.05;;;;;;;;;;5070987;28;20250;-60
2020/12/13 08:07:30;;;;;;;23.00;12.23;;;;;;;;;;5068319;28;20218;-59
2020/12/13 08:09:58;;;;;;;18.70;11.18;;;;;;;;;;5070396;28;20212;-53
2020/12/13 08:12:32;;;;;;;22.15;15.00;;;;;;;;;;5071626;28;20208;-53
2020/12/13 08:15:16;;;;;;;20.95;12.77;;;;;;;;;;5073019;28;20219;-55
2020/12/13 08:18:04;;;;;;;18.48;11.98;;;;;;;;;;5072474;28;20259;-56
2020/12/13 08:20:33;;;;;;;20.83;12.95;;;;;;;;;;5053307;28;20223;-58
2020/12/13 08:23:07;;;;;;;19.38;11.57;;;;;;;;;;5053690;28;20284;-58
2020/12/13 08:34:11;;;;;;;27.33;14.18;;;;;;;;;;5058052;28;20199;-59
2020/12/13 08:36:59;;;;;;;19.17;12.63;;;;;;;;;;5066234;28;20203;-59
2020/12/13 08:39:35;;;;;;;23.73;12.40;;;;;;;;;;5072393;28;20204;-54
2020/12/13 08:42:30;;;;;;;19.52;13.73;;;;;;;;;;5053113;28;20200;-58
2020/12/13 08:45:11;;;;;;;29.00;14.00;;;;;;;;;;5070930;28;20214;-59
2020/12/13 08:47:41;;;;;;;15.85;12.52;;;;;;;;;;5053460;28;20237;-56
2020/12/13 08:50:08;;;;;;;22.17;13.90;;;;;;;;;;5060924;28;20218;-57
2020/12/13 08:52:40;;;;;;;20.77;12.32;;;;;;;;;;5070940;28;20209;-58
2020/12/13 08:58:10;;;;;;;19.08;12.68;;;;;;;;;;5069759;28;20270;-55
2020/12/13 09:00:39;;;;;;;20.38;12.32;;;;;;;;;;5072382;28;20272;-58
2020/12/13 09:03:06;;;;;;;20.23;12.82;;;;;;;;;;5058554;28;20206;-57
2020/12/13 09:05:37;;;;;;;21.00;12.80;;;;;;;;;;5065463;28;20223;-52
2020/12/13 09:08:13;;;;;;;19.17;13.95;;;;;;;;;;5070655;28;20217;-52
2020/12/13 09:10:42;;;;;;;18.98;14.43;;;;;;;;;;5070258;28;20232;-52
2020/12/13 09:13:34;;;;;;;24.10;14.43;;;;;;;;;;5066885;28;20215;-49
2020/12/13 09:16:25;;;;;;;21.80;13.07;;;;;;;;;;5058484;28;20202;-58
2020/12/13 09:19:01;;;;;;;22.10;13.15;;;;;;;;;;5067137;28;20490;-53
2020/12/13 09:21:57;;;;;;;21.03;11.70;;;;;;;;;;5064778;28;20224;-56
2020/12/13 09:24:32;;;;;;;23.90;12.67;;;;;;;;;;5069996;28;20510;-55
2020/12/13 09:27:19;;;;;;;18.30;12.50;;;;;;;;;;5060357;28;20511;-59
2020/12/13 09:29:56;;;;;;;17.00;12.48;;;;;;;;;;5065522;28;20765;-60
2020/12/13 09:32:29;;;;;;;21.23;12.00;;;;;;;;;;5069347;28;20223;-52
2020/12/13 09:38:10;;;;;;;19.13;10.68;;;;;;;;;;5040642;28;20271;-58
2020/12/13 09:40:42;;;;;;;15.73;10.20;;;;;;;;;;5044930;28;20249;-59
2020/12/13 09:43:10;;;;;;;14.25;9.73;;;;;;;;;;5048583;28;20527;-55
2020/12/13 09:45:51;;;;;;;17.90;9.77;;;;;;;;;;5050216;28;20245;-57
2020/12/13 09:48:20;;;;;;;20.70;8.93;;;;;;;;;;5049723;28;20255;-57
2020/12/13 09:51:10;;;;;;;15.40;8.88;;;;;;;;;;5050095;28;20467;-54
2020/12/13 09:53:57;;;;;;;15.50;10.17;;;;;;;;;;5047462;28;20217;-56
2020/12/13 09:56:24;;;;;;;15.63;10.32;;;;;;;;;;5049268;28;20459;-55
2020/12/13 09:58:53;;;;;;;24.37;10.23;;;;;;;;;;5047615;28;20261;-54
2020/12/13 10:01:20;;;;;;;11.97;8.50;;;;;;;;;;5029505;28;20440;-58
2020/12/13 10:03:50;;;;;;;11.90;8.90;;;;;;;;;;5036382;28;20453;-55
2020/12/13 10:12:02;;;;;;;11.57;9.23;;;;;;;;;;5047039;28;20479;-55
2020/12/13 10:14:48;;;;;;;14.55;8.43;;;;;;;;;;5049644;28;20632;-52
2020/12/13 10:22:17;;;;;;;11.17;6.70;;;;;;;;;;5055029;28;20567;-55
2020/12/13 10:27:54;;;;;;;10.33;6.70;;;;;;;;;;5044056;28;20468;-54
2020/12/13 10:33:30;;;;;;;10.03;6.80;;;;;;;;;;5050894;28;20479;-51
2020/12/13 10:35:59;;;;;;;10.57;5.97;;;;;;;;;;5048737;28;20636;-54
2020/12/13 10:38:29;;;;;;;12.77;6.83;;;;;;;;;;5055884;28;20503;-54
2020/12/13 10:41:07;;;;;;;11.57;7.90;;;;;;;;;;5074910;28;20461;-48
2020/12/13 10:43:52;;;;;;;12.07;7.57;;;;;;;;;;5071540;28;20515;-56
2020/12/13 10:46:25;;;;;;;8.70;6.30;;;;;;;;;;5072778;28;20446;-55
2020/12/13 10:48:52;;;;;;;10.60;7.20;;;;;;;;;;5060125;28;20611;-57
2020/12/13 10:51:21;;;;;;;7.93;5.50;;;;;;;;;;5074404;28;20766;-55
2020/12/13 10:53:50;;;;;;;8.37;5.60;;;;;;;;;;5056765;28;20443;-57
2020/12/13 10:59:53;;;;;;;10.90;5.47;;;;;;;;;;5071575;28;20586;-57
2020/12/13 11:02:30;;;;;;;9.23;5.00;;;;;;;;;;5060168;28;20460;-51
2020/12/13 11:05:32;;;;;;;6.50;4.00;;;;;;;;;;5060148;28;20535;-52
2020/12/13 11:08:03;;;;;;;5.87;3.53;;;;;;;;;;5070540;28;20553;-55
2020/12/13 11:13:51;;;;;;;15.63;6.67;;;;;;;;;;5071831;28;20447;-56
2020/12/13 11:16:26;;;;;;;9.77;4.70;;;;;;;;;;5071182;28;20531;-51
2020/12/13 11:18:53;;;;;;;7.53;4.07;;;;;;;;;;5069767;28;20518;-55
2020/12/13 11:21:40;;;;;;;5.27;3.30;;;;;;;;;;5070791;28;20459;-56
2020/12/13 11:24:15;;;;;;;6.00;3.10;;;;;;;;;;5065873;28;20449;-52
2020/12/13 11:26:51;;;;;;;5.83;3.63;;;;;;;;;;5068945;28;20521;-61
2020/12/13 11:29:29;;;;;;;6.67;3.80;;;;;;;;;;5055010;28;20460;-52
2020/12/13 11:32:08;;;;;;;11.10;4.33;;;;;;;;;;5067061;28;20529;-54
2020/12/13 11:34:37;;;;;;;7.07;4.33;;;;;;;;;;5050500;28;20489;-60
2020/12/13 11:40:49;;;;;;;3.93;2.07;;;;;;;;;;5067347;28;20446;-60
2020/12/13 11:43:16;;;;;;;11.27;6.90;;;;;;;;;;5072234;28;20643;-54
2020/12/13 11:51:22;;;;;;;9.20;4.20;;;;;;;;;;5057504;28;20797;-51
2020/12/13 11:53:52;;;;;;;3.57;2.40;;;;;;;;;;5057816;28;20564;-58
2020/12/13 11:59:11;;;;;;;4.67;2.17;;;;;;;;;;5060735;28;20587;-58
2020/12/13 12:01:41;;;;;;;7.00;3.77;;;;;;;;;;5066701;28;20467;-54
2020/12/13 12:06:55;;;;;;;3.70;1.87;;;;;;;;;;5069013;28;20467;-57
2020/12/13 12:09:43;;;;;;;4.00;1.83;;;;;;;;;;5071604;28;20499;-56
2020/12/13 12:12:10;;;;;;;3.10;1.67;;;;;;;;;;5074454;28;20483;-61
2020/12/13 12:14:37;;;;;;;3.60;1.80;;;;;;;;;;5073385;28;20454;-59
2020/12/13 12:19:55;;;;;;;5.27;1.93;;;;;;;;;;5058817;28;20757;-57
2020/12/13 12:22:38;;;;;;;3.70;1.20;;;;;;;;;;5067277;28;20506;-52
2020/12/13 12:25:05;;;;;;;3.50;1.60;;;;;;;;;;5054880;28;20524;-58
2020/12/13 12:27:58;;;;;;;4.50;2.00;;;;;;;;;;5069473;28;20440;-57
2020/12/13 12:30:26;;;;;;;5.37;2.27;;;;;;;;;;5050775;28;20480;-57
2020/12/13 12:32:55;;;;;;;4.70;1.87;;;;;;;;;;5063093;28;20483;-55
2020/12/13 12:35:48;;;;;;;6.30;1.40;;;;;;;;;;5068603;28;20642;-48
2020/12/13 12:38:25;;;;;;;3.10;1.37;;;;;;;;;;5069756;28;20499;-56
2020/12/13 12:41:13;;;;;;;5.27;2.00;;;;;;;;;;5066782;28;20499;-57
2020/12/13 12:43:41;;;;;;;4.77;1.90;;;;;;;;;;5069447;28;20454;-60
2020/12/13 12:46:15;;;;;;;5.33;1.77;;;;;;;;;;5068381;28;20451;-59
2020/12/13 12:48:50;;;;;;;3.40;1.70;;;;;;;;;;5062467;28;20511;-50
2020/12/13 12:51:22;;;;;;;2.97;1.77;;;;;;;;;;5069183;28;20447;-51
2020/12/13 12:53:57;;;;;;;6.83;2.00;;;;;;;;;;5072179;28;20483;-54
2020/12/13 12:56:36;;;;;;;4.63;2.00;;;;;;;;;;5069361;28;20871;-52
2020/12/13 13:01:58;;;;;;;8.07;2.40;;;;;;;;;;5071253;28;20431;-60
2020/12/13 13:04:34;;;;;;;3.73;1.60;;;;;;;;;;5070554;28;20455;-49
2020/12/13 13:13:10;;;;;;;8.03;1.73;;;;;;;;;;5070643;28;20557;-52
2020/12/13 13:15:47;;;;;;;5.30;2.60;;;;;;;;;;5070703;28;20447;-51
2020/12/13 13:18:19;;;;;;;5.30;2.50;;;;;;;;;;5071331;28;20502;-59
2020/12/13 13:20:48;;;;;;;3.33;1.93;;;;;;;;;;5072389;28;20443;-51
2020/12/13 13:28:52;;;;;;;4.23;1.63;;;;;;;;;;5071382;28;20431;-53
2020/12/13 13:31:22;;;;;;;5.93;2.90;;;;;;;;;;5073212;28;20463;-53
2020/12/13 13:33:53;;;;;;;4.60;2.07;;;;;;;;;;5073252;28;20463;-60
2020/12/13 13:36:20;;;;;;;4.30;1.93;;;;;;;;;;5073317;28;20500;-53
2020/12/13 13:38:50;;;;;;;3.90;2.20;;;;;;;;;;5071415;28;20562;-52
2020/12/13 13:41:25;;;;;;;10.50;2.10;;;;;;;;;;5070648;28;20491;-60
2020/12/13 13:44:09;;;;;;;6.10;2.80;;;;;;;;;;5073410;28;20458;-58
2020/12/13 13:46:49;;;;;;;5.93;2.83;;;;;;;;;;5072819;28;20436;-55
2020/12/13 13:52:09;;;;;;;4.17;2.27;;;;;;;;;;5069439;28;20614;-62
2020/12/13 13:54:37;;;;;;;4.50;2.50;;;;;;;;;;5071647;28;20477;-56
2020/12/13 13:57:11;;;;;;;6.13;2.03;;;;;;;;;;5070942;28;20441;-61
2020/12/13 13:59:47;;;;;;;4.35;2.42;;;;;;;;;;5051342;28;20475;-57
2020/12/13 14:02:28;;;;;;;4.87;1.70;;;;;;;;;;5053083;28;20216;-54
2020/12/13 14:05:13;;;;;;;5.53;2.70;;;;;;;;;;5052488;28;20451;-56
2020/12/13 14:10:33;;;;;;;6.50;1.90;;;;;;;;;;5056547;28;20467;-60
2020/12/13 14:13:03;;;;;;;3.73;1.60;;;;;;;;;;5068892;28;20508;-57
2020/12/13 14:16:02;;;;;;;6.18;2.00;;;;;;;;;;5071023;28;20976;-59
2020/12/13 14:18:50;;;;;;;6.50;2.77;;;;;;;;;;5069125;28;20240;-58
2020/12/13 14:21:36;;;;;;;5.00;1.60;;;;;;;;;;5072354;28;20502;-58
2020/12/13 14:24:25;;;;;;;5.63;1.90;;;;;;;;;;5067927;28;20564;-59
2020/12/13 14:26:57;;;;;;;6.38;3.03;;;;;;;;;;5064977;28;20219;-54
2020/12/13 14:29:26;;;;;;;6.03;2.10;;;;;;;;;;5070324;28;20204;-59
2020/12/13 14:31:52;;;;;;;5.05;1.85;;;;;;;;;;5071594;28;20191;-55
2020/12/13 14:34:28;;;;;;;7.40;2.03;;;;;;;;;;5060191;28;20609;-54
2020/12/13 14:39:43;;;;;;;7.40;2.90;;;;;;;;;;5049808;28;20323;-53
2020/12/13 14:42:10;;;;;;;5.43;2.00;;;;;;;;;;5048356;28;20467;-57
2020/12/13 14:44:37;;;;;;;5.13;2.22;;;;;;;;;;5060481;28;20204;-51
2020/12/13 14:47:09;;;;;;;6.45;2.85;;;;;;;;;;5070360;28;20204;-62
2020/12/13 14:49:45;;;;;;;5.93;2.10;;;;;;;;;;5070715;28;20224;-54
2020/12/13 14:52:15;;;;;;;5.93;2.57;;;;;;;;;;5067271;28;20464;-51
2020/12/13 14:57:57;;;;;;;6.20;2.90;;;;;;;;;;5069912;28;20448;-53
2020/12/13 15:00:35;;;;;;;6.35;3.10;;;;;;;;;;5069650;28;20458;-51
2020/12/13 15:03:01;;;;;;;11.55;3.28;;;;;;;;;;5071771;28;20208;-56
2020/12/13 15:05:43;;;;;;;5.85;2.20;;;;;;;;;;5069995;28;20292;-56
2020/12/13 15:08:14;;;;;;;8.63;3.05;;;;;;;;;;5053628;28;20203;-58
2020/12/13 15:10:45;;;;;;;5.80;1.85;;;;;;;;;;5049826;28;20245;-57
2020/12/13 15:13:33;;;;;;;5.03;2.50;;;;;;;;;;5071895;28;20210;-51
2020/12/13 15:16:13;;;;;;;5.22;1.85;;;;;;;;;;5071029;28;20207;-55
2020/12/13 15:18:42;;;;;;;7.63;1.90;;;;;;;;;;5063122;28;20246;-56
2020/12/13 15:21:10;;;;;;;5.75;1.92;;;;;;;;;;5071107;28;20208;-52
2020/12/13 15:23:58;;;;;;;5.30;2.13;;;;;;;;;;5056512;28;20251;-54
2020/12/13 15:26:43;;;;;;;9.00;3.70;;;;;;;;;;5059897;28;20247;-56
2020/12/13 15:29:24;;;;;;;7.35;2.72;;;;;;;;;;5055970;28;20220;-50
2020/12/13 15:34:46;;;;;;;5.45;2.33;;;;;;;;;;5061050;28;20295;-56
2020/12/13 15:37:37;;;;;;;8.60;2.15;;;;;;;;;;5071139;28;20208;-55
2020/12/13 15:40:05;;;;;;;8.73;2.80;;;;;;;;;;5072529;28;20208;-50
2020/12/13 15:48:23;;;;;;;5.85;2.85;;;;;;;;;;5051592;28;20260;-58
2020/12/13 15:50:55;;;;;;;10.07;4.95;;;;;;;;;;5052593;28;20220;-54
2020/12/13 15:54:02;;;;;;;9.25;2.83;;;;;;;;;;5062209;28;20193;-56
2020/12/13 15:56:38;;;;;;;6.50;3.50;;;;;;;;;;5070017;28;20231;-55
2020/12/13 16:04:58;;;;;;;6.47;2.00;;;;;;;;;;5071579;28;20208;-60
2020/12/13 16:07:40;;;;;;;4.97;2.00;;;;;;;;;;5069133;28;20283;-55
2020/12/13 16:10:12;;;;;;;8.82;3.13;;;;;;;;;;5071536;28;20212;-57
2020/12/13 16:16:11;;;;;;;6.53;1.98;;;;;;;;;;5026589;28;20216;-57
2020/12/13 16:24:47;;;;;;;5.05;2.22;;;;;;;;;;5073511;28;20192;-50
2020/12/13 16:27:33;;;;;;;3.60;2.00;;;;;;;;;;5073532;28;20212;-55
2020/12/13 16:33:07;;;;;;;6.97;2.45;;;;;;;;;;5068975;28;20243;-53
2020/12/13 16:38:54;;;;;;;8.38;2.40;;;;;;;;;;5063638;28;20284;-56
2020/12/13 16:41:29;;;;;;;27.55;13.13;;;;;;;;;;5045182;28;20224;-56
2020/12/13 16:46:55;;;;;;;6.22;2.63;;;;;;;;;;5072054;28;20661;-51
2020/12/13 16:49:44;;;;;;;8.90;2.40;;;;;;;;;;5070968;28;20204;-59
2020/12/13 16:55:13;;;;;;;3.95;2.33;;;;;;;;;;5060456;28;20256;-56
2020/12/13 16:58:00;;;;;;;10.02;2.72;;;;;;;;;;5054037;28;20235;-59
2020/12/13 17:03:26;;;;;;;10.45;3.00;;;;;;;;;;5067611;28;20207;-54
2020/12/13 17:06:05;;;;;;;4.80;2.42;;;;;;;;;;5069702;28;20332;-53
2020/12/13 17:08:58;;;;;;;4.32;2.50;;;;;;;;;;5068465;28;20192;-52
2020/12/13 17:11:25;;;;;;;8.13;2.88;;;;;;;;;;5063796;28;20267;-57
2020/12/13 17:13:59;;;;;;;5.53;2.30;;;;;;;;;;5069565;28;20210;-55
2020/12/13 17:16:36;;;;;;;4.45;2.40;;;;;;;;;;5068301;28;20314;-54
2020/12/13 17:19:04;;;;;;;6.90;2.47;;;;;;;;;;5057178;28;20237;-51
2020/12/13 17:21:49;;;;;;;4.32;2.22;;;;;;;;;;5059292;28;20191;-60